Rossburg, New York
Current Conditions -  °F | °C
As of 8:54 AM on Saturday 22 Nov 2014 (Local Time) from KDSV Reporting Station
Scattered Clouds Scattered Clouds  
Wind Chill: 22°   Ceiling: Unl
Heat Index: 31°   Visibility: 10mi
Dew Point:   Wind: 10mph
Humidity: 37%   Direction: 150°SSE
Pressure: 30.23"   Gusts: NA
Location:  42.5°N, 78.07°W
Report Text: KDSV 221354Z AUTO 15009KT 10SM SCT060 M01/M14 A3023 RMK AO2 SLP256 T10061139
Loading
Personal Weather Stations






























Interactive Weather Map New forecast layout! Learn more

10-Day Weather Forecast

Advertisements
Track Severe Weather on mobile